createdAt,value
2023-06-28T00:01:18.548Z,99943.56
2023-06-28T00:03:45.687Z,99935.41
2023-06-28T00:06:12.736Z,99937.84
2023-06-28T00:08:41.715Z,99934.31
2023-06-28T00:11:11.826Z,99928.84
2023-06-28T00:13:38.875Z,99932.03
2023-06-28T00:16:06.001Z,99931.88
2023-06-28T00:18:34.217Z,99933.28
2023-06-28T00:21:03.586Z,99935.88
2023-06-28T00:23:30.958Z,99933.69
2023-06-28T00:25:57.968Z,99937.41
2023-06-28T00:28:25.069Z,99944.41
2023-06-28T00:30:52.072Z,99939.50
2023-06-28T00:33:21.583Z,99944.13
2023-06-28T00:35:50.115Z,99937.06
2023-06-28T00:38:17.337Z,99945.41
2023-06-28T00:40:44.630Z,99950.28
2023-06-28T00:43:11.872Z,99953.25
2023-06-28T00:45:38.898Z,99954.34
2023-06-28T00:48:07.272Z,99953.53
2023-06-28T00:50:36.708Z,99958.94
2023-06-28T00:53:04.337Z,99954.34
2023-06-28T00:55:31.611Z,99953.53
2023-06-28T00:57:58.681Z,99952.72
2023-06-28T01:00:27.625Z,99954.34
2023-06-28T01:02:54.888Z,99953.00
2023-06-28T01:05:23.191Z,99953.81
2023-06-28T01:07:52.929Z,99951.66
2023-06-28T01:10:20.838Z,99954.16
2023-06-28T01:12:48.816Z,99952.50
2023-06-28T01:15:16.514Z,99949.22
2023-06-28T01:17:43.651Z,99947.84
2023-06-28T01:20:11.195Z,99955.66
2023-06-28T01:22:41.753Z,99952.38
2023-06-28T01:25:11.955Z,99956.66
2023-06-28T01:27:45.966Z,99960.97
2023-06-28T01:30:16.169Z,99958.75
2023-06-28T01:32:44.634Z,99951.13
2023-06-28T01:35:11.997Z,99952.94
2023-06-28T01:37:40.303Z,99953.22
2023-06-28T01:40:12.194Z,99945.56
2023-06-28T01:42:40.507Z,99949.78
2023-06-28T01:45:08.400Z,99945.69
2023-06-28T01:47:35.945Z,99949.72
2023-06-28T01:50:03.543Z,99945.38
2023-06-28T01:52:30.872Z,99944.81
2023-06-28T01:55:00.857Z,99948.59
2023-06-28T01:57:27.909Z,99940.47
2023-06-28T01:59:56.038Z,99949.41
2023-06-28T02:02:23.396Z,99946.94
2023-06-28T02:04:50.622Z,99944.69
2023-06-28T02:07:18.079Z,99943.81
2023-06-28T02:09:46.095Z,99947.94
2023-06-28T02:12:13.215Z,99948.69
2023-06-28T02:14:40.792Z,99950.25
2023-06-28T02:17:15.220Z,99944.03
2023-06-28T02:19:43.167Z,99945.31
2023-06-28T02:22:10.348Z,99934.50
2023-06-28T02:24:37.405Z,99933.94
2023-06-28T02:27:05.822Z,99937.97
2023-06-28T02:29:32.917Z,99935.75
2023-06-28T02:32:01.157Z,99937.63
2023-06-28T02:34:28.617Z,99938.44
2023-06-28T02:36:56.131Z,99934.09
2023-06-28T02:39:23.852Z,99939.78
2023-06-28T02:41:51.271Z,99937.81
2023-06-28T02:44:18.408Z,99936.97
2023-06-28T02:46:46.424Z,99939.69
2023-06-28T02:49:13.687Z,99943.22
2023-06-28T02:51:40.790Z,99939.69
2023-06-28T02:54:10.559Z,99945.94
2023-06-28T02:56:38.331Z,99942.16
2023-06-28T02:59:33.672Z,99948.16
2023-06-28T03:02:00.949Z,99952.25
2023-06-28T03:04:28.817Z,99948.47
2023-06-28T03:06:57.599Z,99950.09
2023-06-28T03:09:25.123Z,99953.41
2023-06-28T03:11:52.167Z,99951.50
2023-06-28T03:14:19.380Z,99953.41
2023-06-28T03:16:46.476Z,99953.41
2023-06-28T03:19:13.610Z,99946.09
2023-06-28T03:21:42.798Z,99948.53
2023-06-28T03:24:09.824Z,99955.03
2023-06-28T03:26:36.895Z,99951.25
2023-06-28T03:29:03.933Z,99956.66
2023-06-28T03:31:32.816Z,99955.03
2023-06-28T03:34:01.200Z,99949.63
2023-06-28T03:36:32.729Z,99952.56
2023-06-28T03:38:59.798Z,99952.81
2023-06-28T03:41:28.656Z,99950.09
2023-06-28T03:43:56.107Z,99949.03
2023-06-28T03:46:24.140Z,99946.31
2023-06-28T03:48:51.200Z,99950.09
2023-06-28T03:51:18.523Z,99952.81
2023-06-28T03:53:45.526Z,99953.63
2023-06-28T03:56:12.615Z,99951.72
2023-06-28T03:58:39.661Z,99956.31
2023-06-28T04:01:06.655Z,99954.69
2023-06-28T04:03:33.816Z,99956.59
2023-06-28T04:06:00.989Z,99957.41
2023-06-28T04:08:28.080Z,99951.72
2023-06-28T04:10:56.062Z,99950.69
2023-06-28T04:13:23.831Z,99955.84
2023-06-28T04:15:50.850Z,99949.63
2023-06-28T04:18:17.849Z,99958.81
2023-06-28T04:20:45.037Z,99959.84
2023-06-28T04:23:12.183Z,99964.44
2023-06-28T04:25:39.241Z,99965.53
2023-06-28T04:28:06.291Z,99964.41
2023-06-28T04:30:33.316Z,99963.25
2023-06-28T04:33:05.541Z,99968.31
2023-06-28T04:35:35.879Z,99972.00
2023-06-28T04:38:04.337Z,99973.22
2023-06-28T04:40:34.035Z,99978.66
2023-06-28T04:43:01.105Z,99974.22
2023-06-28T04:45:37.360Z,99972.81
2023-06-28T04:48:09.589Z,99971.09
2023-06-28T04:50:38.648Z,99971.91
2023-06-28T04:53:06.447Z,99968.63
2023-06-28T04:55:36.020Z,99972.16
2023-06-28T04:58:05.374Z,99968.63
2023-06-28T05:00:34.640Z,99961.59
2023-06-28T05:03:02.172Z,99973.22
2023-06-28T05:05:30.166Z,99969.47
2023-06-28T05:07:57.758Z,99972.72
2023-06-28T05:10:25.686Z,99973.31
2023-06-28T05:12:53.371Z,99973.91
2023-06-28T05:15:20.858Z,99977.16
2023-06-28T05:17:48.384Z,99974.22
2023-06-28T05:20:16.111Z,99969.13
2023-06-28T05:22:50.047Z,99972.41
2023-06-28T05:25:18.055Z,99970.31
2023-06-28T05:27:45.103Z,99972.75
2023-06-28T05:30:12.351Z,99970.38
2023-06-28T05:32:39.588Z,99974.72
2023-06-28T05:35:07.062Z,99970.13
2023-06-28T05:37:34.081Z,99966.09
2023-06-28T05:40:01.095Z,99968.31
2023-06-28T05:42:28.158Z,99960.78
2023-06-28T05:44:55.273Z,99960.28
2023-06-28T05:47:22.298Z,99963.56
2023-06-28T05:49:50.466Z,99961.44
2023-06-28T05:52:18.545Z,99960.38
2023-06-28T05:54:45.553Z,99957.16
2023-06-28T05:57:13.627Z,99965.59
2023-06-28T05:59:40.632Z,99963.22
2023-06-28T06:02:07.732Z,99967.34
2023-06-28T06:04:34.781Z,99974.69
2023-06-28T06:07:01.833Z,99978.56
2023-06-28T06:09:30.542Z,99972.66
2023-06-28T06:11:57.921Z,99980.28
2023-06-28T06:14:24.943Z,99977.66
2023-06-28T06:16:51.927Z,99976.56
2023-06-28T06:19:18.930Z,99984.19
2023-06-28T06:21:45.929Z,99978.78
2023-06-28T06:24:12.936Z,99984.19
2023-06-28T06:26:39.994Z,99988.56
2023-06-28T06:29:07.038Z,99975.84
2023-06-28T06:31:34.365Z,99982.41
2023-06-28T06:34:02.345Z,99984.88
2023-06-28T06:36:29.656Z,99989.81
2023-06-28T06:39:00.765Z,99987.66
2023-06-28T06:41:28.144Z,99989.06
2023-06-28T06:43:55.792Z,99985.84
2023-06-28T06:46:22.859Z,99993.22
2023-06-28T06:48:49.994Z,99993.53
2023-06-28T06:51:17.289Z,99999.28
2023-06-28T06:53:44.388Z,99994.97
2023-06-28T06:56:11.697Z,99996.13
2023-06-28T06:58:38.778Z,99992.41
2023-06-28T07:01:05.906Z,99991.69
2023-06-28T07:03:33.012Z,99990.91
2023-06-28T07:06:00.424Z,99998.28
2023-06-28T07:08:28.179Z,100002.97
2023-06-28T07:10:55.180Z,100003.84
2023-06-28T07:13:22.229Z,100009.31
2023-06-28T07:15:49.307Z,100007.47
2023-06-28T07:18:17.346Z,100009.19
2023-06-28T07:20:44.601Z,100007.59
2023-06-28T07:23:11.616Z,100000.03
2023-06-28T07:25:40.247Z,100008.50
2023-06-28T07:28:07.706Z,100004.47
2023-06-28T07:30:56.476Z,100018.31
2023-06-28T07:33:24.492Z,100015.94
2023-06-28T07:35:52.782Z,100005.63
2023-06-28T07:38:21.505Z,100008.88
2023-06-28T07:40:49.979Z,100005.63
2023-06-28T07:43:19.473Z,100004.63
2023-06-28T07:45:46.982Z,100012.28
2023-06-28T07:48:14.136Z,100011.28
2023-06-28T07:50:41.914Z,100002.09
2023-06-28T07:53:08.915Z,100013.56
2023-06-28T07:55:36.019Z,100009.56
2023-06-28T07:58:03.083Z,100000.66
2023-06-28T08:00:32.034Z,100002.06
2023-06-28T08:03:00.066Z,99998.88
2023-06-28T08:05:27.278Z,100000.31
2023-06-28T08:07:57.579Z,99999.56
2023-06-28T08:10:27.831Z,99993.91
2023-06-28T08:12:56.427Z,99997.41
2023-06-28T08:15:23.528Z,99996.69
2023-06-28T08:17:50.950Z,100002.13
2023-06-28T08:20:18.356Z,99998.81
2023-06-28T08:22:45.392Z,99995.28
2023-06-28T08:25:12.428Z,99992.34
2023-06-28T08:27:39.477Z,99994.03
2023-06-28T08:30:07.525Z,99994.09
2023-06-28T08:32:36.211Z,99992.75
2023-06-28T08:35:05.337Z,99993.06
2023-06-28T08:37:35.462Z,99996.91
2023-06-28T08:40:03.075Z,100000.72
2023-06-28T08:42:31.340Z,99997.19
2023-06-28T08:44:59.131Z,99994.22
2023-06-28T08:47:33.255Z,99998.59
2023-06-28T08:50:00.586Z,99998.06
2023-06-28T08:52:28.824Z,99997.03
2023-06-28T08:54:58.848Z,99997.31
2023-06-28T08:57:26.952Z,99999.00
2023-06-28T08:59:54.165Z,99994.97
2023-06-28T09:02:23.432Z,99991.16
2023-06-28T09:04:52.333Z,99996.66
2023-06-28T09:07:22.243Z,99996.66
2023-06-28T09:09:50.416Z,99993.41
2023-06-28T09:12:17.854Z,99990.41
2023-06-28T09:14:44.958Z,99991.78
2023-06-28T09:17:11.935Z,99999.97
2023-06-28T09:19:39.284Z,99996.66
2023-06-28T09:22:09.864Z,99987.69
2023-06-28T09:24:38.116Z,99987.44
2023-06-28T09:27:07.111Z,99984.16
2023-06-28T09:29:35.369Z,99981.72
2023-06-28T09:32:02.818Z,99986.91
2023-06-28T09:34:29.894Z,99983.66
2023-06-28T09:36:59.421Z,99979.28
2023-06-28T09:39:27.150Z,99986.63
2023-06-28T09:41:55.207Z,99985.00
2023-06-28T09:44:30.645Z,99984.72
2023-06-28T09:47:06.048Z,99980.88
2023-06-28T09:49:33.559Z,99974.88
2023-06-28T09:52:08.050Z,99977.84
2023-06-28T09:54:45.770Z,99969.97
2023-06-28T09:57:13.707Z,99965.28
2023-06-28T09:59:42.582Z,99965.53
2023-06-28T10:02:10.799Z,99967.75
2023-06-28T10:04:41.476Z,99960.63
2023-06-28T10:07:12.058Z,99957.88
2023-06-28T10:09:42.482Z,99958.91
2023-06-28T10:12:19.431Z,99956.41
2023-06-28T10:14:59.510Z,99955.22
2023-06-28T10:17:36.684Z,99962.53
2023-06-28T10:20:07.602Z,99962.97
2023-06-28T10:22:35.538Z,99957.66
2023-06-28T10:25:06.612Z,99962.75
2023-06-28T10:27:35.188Z,99963.75
2023-06-28T10:30:03.850Z,99960.88
2023-06-28T10:32:31.431Z,99964.28
2023-06-28T10:34:59.839Z,99965.53
2023-06-28T10:37:26.941Z,99960.53
2023-06-28T10:39:54.814Z,99966.97
2023-06-28T10:42:22.197Z,99957.03
2023-06-28T10:44:57.610Z,99959.44
2023-06-28T10:47:25.334Z,99960.88
2023-06-28T10:50:12.667Z,99958.25
2023-06-28T10:52:48.188Z,99968.19
2023-06-28T10:55:35.449Z,99966.13
2023-06-28T10:58:11.636Z,99967.63
2023-06-28T11:00:40.203Z,99960.38
2023-06-28T11:03:08.624Z,99957.78
2023-06-28T11:05:40.546Z,99960.63
2023-06-28T11:08:16.285Z,99948.47
2023-06-28T11:10:55.521Z,99953.88
2023-06-28T11:13:40.913Z,99949.88
2023-06-28T11:16:10.236Z,99946.47
2023-06-28T11:18:38.528Z,99945.72
2023-06-28T11:21:13.358Z,99944.69
2023-06-28T11:23:42.529Z,99936.31
2023-06-28T11:26:20.585Z,99947.09
2023-06-28T11:28:56.856Z,99942.34
2023-06-28T11:31:27.356Z,99941.44
2023-06-28T11:33:55.732Z,99951.50
2023-06-28T11:36:26.371Z,99949.25
2023-06-28T11:38:53.561Z,99947.94
2023-06-28T11:41:20.956Z,99946.31
2023-06-28T11:43:49.377Z,99943.66
2023-06-28T11:46:22.634Z,99949.06
2023-06-28T11:48:51.912Z,99947.50
2023-06-28T11:51:22.821Z,99939.31
2023-06-28T11:53:52.968Z,99941.13
2023-06-28T11:56:20.099Z,99945.59
2023-06-28T11:58:47.275Z,99934.31
2023-06-28T12:01:22.874Z,99940.31
2023-06-28T12:03:50.090Z,99934.81
2023-06-28T12:06:17.806Z,99941.44
2023-06-28T12:08:44.948Z,99933.50
2023-06-28T12:11:14.565Z,99939.00
2023-06-28T12:13:42.616Z,99934.81
2023-06-28T12:16:15.835Z,99941.03
2023-06-28T12:18:59.664Z,99927.81
2023-06-28T12:21:30.949Z,99932.81
2023-06-28T12:24:18.964Z,99939.09
2023-06-28T12:26:48.738Z,99938.78
2023-06-28T12:29:21.679Z,99937.59
2023-06-28T12:31:53.623Z,99936.38
2023-06-28T12:34:29.413Z,99934.03
2023-06-28T12:37:01.095Z,99922.88
2023-06-28T12:39:37.487Z,99926.56
2023-06-28T12:42:21.515Z,99924.59
2023-06-28T12:44:57.259Z,99925.22
2023-06-28T12:47:27.354Z,99925.28
2023-06-28T12:49:55.625Z,99920.19
2023-06-28T12:52:25.265Z,99912.47
2023-06-28T12:54:53.162Z,99911.94
2023-06-28T12:57:27.377Z,99913.88
2023-06-28T12:59:54.675Z,99913.38
2023-06-28T13:02:22.020Z,99907.53
2023-06-28T13:04:49.888Z,99906.91
2023-06-28T13:07:17.317Z,99906.00
2023-06-28T13:09:44.450Z,99904.00
2023-06-28T13:12:12.606Z,99903.44
2023-06-28T13:14:39.644Z,99900.91
2023-06-28T13:17:07.185Z,99906.16
2023-06-28T13:19:34.446Z,99902.50
2023-06-28T13:22:01.527Z,99899.44
2023-06-28T13:24:28.527Z,99905.31
2023-06-28T13:26:57.518Z,99901.06
2023-06-28T13:29:25.240Z,99905.72
2023-06-28T13:31:52.515Z,99904.88
2023-06-28T13:34:19.574Z,99901.38
2023-06-28T13:36:46.976Z,99908.16
2023-06-28T13:39:14.124Z,99907.25
2023-06-28T13:41:43.969Z,99902.88
2023-06-28T13:44:11.430Z,99896.69
2023-06-28T13:46:38.495Z,99890.69
2023-06-28T13:49:05.545Z,99883.16
2023-06-28T13:51:33.714Z,99889.03
2023-06-28T13:54:01.406Z,99879.88
2023-06-28T13:56:28.420Z,99882.91
2023-06-28T13:58:55.845Z,99882.91
2023-06-28T14:01:24.231Z,99873.69
2023-06-28T14:03:52.028Z,99876.19
2023-06-28T14:06:19.158Z,99876.44
2023-06-28T14:08:46.248Z,99878.44
2023-06-28T14:11:13.963Z,99874.94
2023-06-28T14:13:41.016Z,99871.66
2023-06-28T14:16:08.050Z,99867.25
2023-06-28T14:18:35.069Z,99866.31
2023-06-28T14:21:02.062Z,99865.03
2023-06-28T14:23:29.062Z,99870.84
2023-06-28T14:25:56.087Z,99866.66
2023-06-28T14:28:24.328Z,99865.63
2023-06-28T14:30:51.416Z,99864.00
2023-06-28T14:33:18.471Z,99862.78
2023-06-28T14:35:45.606Z,99869.00
2023-06-28T14:38:12.944Z,99859.31
2023-06-28T14:40:40.183Z,99862.94
2023-06-28T14:43:09.049Z,99862.69
2023-06-28T14:45:36.278Z,99862.25
2023-06-28T14:48:03.632Z,99857.56
2023-06-28T14:50:30.667Z,99858.19
2023-06-28T14:52:57.801Z,99866.75
2023-06-28T14:55:24.850Z,99863.00
2023-06-28T14:57:51.887Z,99863.13
2023-06-28T15:00:19.334Z,99858.19
2023-06-28T15:02:46.481Z,99856.47
2023-06-28T15:05:13.681Z,99854.78
2023-06-28T15:07:41.342Z,99856.31
2023-06-28T15:10:09.340Z,99859.19
2023-06-28T15:12:36.342Z,99857.25
2023-06-28T15:15:03.417Z,99851.25
2023-06-28T15:17:30.980Z,99852.78
2023-06-28T15:19:58.010Z,99848.84
2023-06-28T15:22:25.016Z,99846.84
2023-06-28T15:24:52.080Z,99845.09
2023-06-28T15:27:20.475Z,99840.97
2023-06-28T15:29:47.471Z,99840.03
2023-06-28T15:32:14.463Z,99843.38
2023-06-28T15:34:41.516Z,99849.28
2023-06-28T15:37:08.511Z,99841.47
2023-06-28T15:39:35.489Z,99839.44
2023-06-28T15:42:02.782Z,99836.69
2023-06-28T15:44:29.785Z,99839.53
2023-06-28T15:46:56.760Z,99840.25
2023-06-28T15:49:24.675Z,99834.06
2023-06-28T15:51:51.806Z,99835.88
2023-06-28T15:54:18.859Z,99835.56
2023-06-28T15:56:47.846Z,99835.06
2023-06-28T15:59:14.852Z,99826.91
2023-06-28T16:01:44.987Z,99830.78
2023-06-28T16:04:12.605Z,99831.00
2023-06-28T16:06:39.649Z,99831.00
2023-06-28T16:09:06.798Z,99822.84
2023-06-28T16:11:34.830Z,99817.69
2023-06-28T16:14:01.931Z,99814.91
2023-06-28T16:16:30.030Z,99822.25
2023-06-28T16:18:57.265Z,99819.56
2023-06-28T16:21:24.418Z,99819.44
2023-06-28T16:23:51.484Z,99822.53
2023-06-28T16:26:18.558Z,99816.63
2023-06-28T16:28:45.537Z,99810.88
2023-06-28T16:31:12.564Z,99811.94
2023-06-28T16:33:39.678Z,99809.56
2023-06-28T16:36:06.664Z,99812.31
2023-06-28T16:38:33.657Z,99811.94
2023-06-28T16:41:00.772Z,99802.16
2023-06-28T16:43:27.814Z,99802.25
2023-06-28T16:45:54.944Z,99812.31
2023-06-28T16:48:22.109Z,99809.44
2023-06-28T16:50:49.348Z,99801.44
2023-06-28T16:53:16.694Z,99806.53
2023-06-28T16:55:43.719Z,99809.00
2023-06-28T16:58:10.904Z,99815.91
2023-06-28T17:00:37.993Z,99811.66
2023-06-28T17:03:05.171Z,99807.38
2023-06-28T17:05:32.308Z,99813.81
2023-06-28T17:07:59.408Z,99814.81
2023-06-28T17:10:26.486Z,99817.56
2023-06-28T17:12:53.577Z,99814.72
2023-06-28T17:15:20.555Z,99808.91
2023-06-28T17:17:48.313Z,99819.50
2023-06-28T17:20:17.013Z,99818.09
2023-06-28T17:22:44.027Z,99816.31
2023-06-28T17:25:11.062Z,99822.88
2023-06-28T17:27:40.359Z,99816.97
2023-06-28T17:30:08.355Z,99822.06
2023-06-28T17:32:35.523Z,99813.91
2023-06-28T17:35:02.591Z,99827.53
2023-06-28T17:37:29.800Z,99813.50
2023-06-28T17:39:56.837Z,99815.53
2023-06-28T17:42:23.889Z,99810.66
2023-06-28T17:44:50.902Z,99818.56
2023-06-28T17:47:17.963Z,99816.56
2023-06-28T17:49:44.969Z,99821.25
2023-06-28T17:52:11.969Z,99823.78
2023-06-28T17:54:39.096Z,99820.63
2023-06-28T17:57:06.479Z,99824.09
2023-06-28T17:59:33.473Z,99819.31
2023-06-28T18:02:00.629Z,99821.47
2023-06-28T18:04:27.768Z,99817.19
2023-06-28T18:06:55.600Z,99810.47
2023-06-28T18:09:22.732Z,99815.13
2023-06-28T18:11:49.877Z,99819.72
2023-06-28T18:14:16.882Z,99825.72
2023-06-28T18:16:44.288Z,99817.81
2023-06-28T18:19:12.629Z,99814.31
2023-06-28T18:21:39.634Z,99812.97
2023-06-28T18:24:07.274Z,99808.00
2023-06-28T18:26:34.282Z,99810.84
2023-06-28T18:29:01.257Z,99818.53
2023-06-28T18:31:28.343Z,99821.97
2023-06-28T18:33:55.380Z,99827.25
2023-06-28T18:36:22.389Z,99815.56
2023-06-28T18:38:49.383Z,99818.09
2023-06-28T18:41:16.516Z,99820.28
2023-06-28T18:43:43.504Z,99826.50
2023-06-28T18:46:10.560Z,99819.56
2023-06-28T18:48:37.569Z,99822.38
2023-06-28T18:51:04.646Z,99828.00
2023-06-28T18:53:31.849Z,99830.59
2023-06-28T18:55:58.983Z,99827.13
2023-06-28T18:58:31.732Z,99829.94
2023-06-28T19:00:59.404Z,99827.25
2023-06-28T19:03:27.815Z,99829.59
2023-06-28T19:05:55.371Z,99831.66
2023-06-28T19:08:23.183Z,99828.22
2023-06-28T19:10:50.772Z,99826.75
2023-06-28T19:13:21.256Z,99826.84
2023-06-28T19:15:49.537Z,99830.06
2023-06-28T19:18:16.800Z,99827.97
2023-06-28T19:20:46.066Z,99834.34
2023-06-28T19:23:14.294Z,99839.69
2023-06-28T19:25:41.776Z,99828.03
2023-06-28T19:28:09.414Z,99831.38
2023-06-28T19:30:36.486Z,99840.78
2023-06-28T19:33:03.630Z,99828.56
2023-06-28T19:35:30.705Z,99831.03
2023-06-28T19:37:57.772Z,99832.72
2023-06-28T19:40:25.064Z,99834.94
2023-06-28T19:42:52.064Z,99831.69
2023-06-28T19:45:19.170Z,99837.75
2023-06-28T19:47:47.552Z,99848.16
2023-06-28T19:50:14.693Z,99837.31
2023-06-28T19:52:41.698Z,99846.66
2023-06-28T19:55:09.895Z,99836.84
2023-06-28T19:57:36.960Z,99845.84
2023-06-28T20:00:06.439Z,99840.16
2023-06-28T20:02:42.792Z,99847.28
2023-06-28T20:05:10.204Z,99846.22
2023-06-28T20:07:38.017Z,99850.06
2023-06-28T20:10:05.835Z,99841.34
2023-06-28T20:12:34.232Z,99838.97
2023-06-28T20:15:04.940Z,99837.88
2023-06-28T20:17:34.773Z,99837.63
2023-06-28T20:20:01.928Z,99840.34
2023-06-28T20:22:33.960Z,99840.31
2023-06-28T20:25:06.964Z,99836.53
2023-06-28T20:27:35.238Z,99833.28
2023-06-28T20:30:03.441Z,99830.28
2023-06-28T20:32:32.058Z,99833.81
2023-06-28T20:35:00.263Z,99839.81
2023-06-28T20:37:27.418Z,99829.44
2023-06-28T20:39:54.620Z,99838.44
2023-06-28T20:42:25.672Z,99840.09
2023-06-28T20:44:54.587Z,99835.72
2023-06-28T20:47:26.519Z,99832.72
2023-06-28T20:49:53.832Z,99840.38
2023-06-28T20:52:21.309Z,99842.53
2023-06-28T20:54:48.310Z,99843.63
2023-06-28T20:57:15.385Z,99834.38
2023-06-28T20:59:42.412Z,99838.72
2023-06-28T21:02:09.449Z,99845.53
2023-06-28T21:04:36.955Z,99842.53
2023-06-28T21:07:04.443Z,99843.88
2023-06-28T21:09:31.506Z,99844.16
2023-06-28T21:11:58.521Z,99847.97
2023-06-28T21:14:25.587Z,99847.16
2023-06-28T21:16:52.620Z,99843.59
2023-06-28T21:19:19.640Z,99847.94
2023-06-28T21:21:46.721Z,99845.22
2023-06-28T21:24:15.158Z,99843.88
2023-06-28T21:26:42.545Z,99851.47
2023-06-28T21:29:09.568Z,99852.78
2023-06-28T21:31:36.639Z,99845.16
2023-06-28T21:34:03.888Z,99850.06
2023-06-28T21:36:30.893Z,99856.56
2023-06-28T21:38:58.537Z,99857.94
2023-06-28T21:41:25.646Z,99855.47
2023-06-28T21:43:52.721Z,99858.19
2023-06-28T21:46:19.951Z,99855.44
2023-06-28T21:48:47.235Z,99864.16
2023-06-28T21:51:14.303Z,99852.19
2023-06-28T21:53:41.363Z,99857.09
2023-06-28T21:56:10.476Z,99852.72
2023-06-28T21:58:37.812Z,99856.75
2023-06-28T22:01:04.897Z,99852.16
2023-06-28T22:03:32.051Z,99859.75
2023-06-28T22:05:59.146Z,99857.84
2023-06-28T22:08:26.140Z,99846.69
2023-06-28T22:10:54.848Z,99849.94
2023-06-28T22:13:24.585Z,99846.66
2023-06-28T22:15:52.025Z,99842.56
2023-06-28T22:18:21.017Z,99846.38
2023-06-28T22:20:49.264Z,99850.44
2023-06-28T22:23:17.917Z,99841.72
2023-06-28T22:25:46.222Z,99840.91
2023-06-28T22:28:13.224Z,99840.91
2023-06-28T22:30:40.242Z,99845.53
2023-06-28T22:33:07.428Z,99839.00
2023-06-28T22:35:34.507Z,99840.63
2023-06-28T22:38:01.533Z,99838.41
2023-06-28T22:40:28.573Z,99833.75
2023-06-28T22:42:55.590Z,99839.97
2023-06-28T22:45:23.011Z,99838.34
2023-06-28T22:47:51.833Z,99839.66
2023-06-28T22:50:18.925Z,99830.16
2023-06-28T22:52:45.938Z,99833.97
2023-06-28T22:55:13.264Z,99830.69
2023-06-28T22:57:40.616Z,99825.25
2023-06-28T23:00:11.238Z,99831.22
2023-06-28T23:02:38.889Z,99825.78
2023-06-28T23:05:08.195Z,99826.31
2023-06-28T23:07:39.276Z,99833.09
2023-06-28T23:10:07.129Z,99826.84
2023-06-28T23:12:38.265Z,99822.47
2023-06-28T23:15:06.179Z,99812.72
2023-06-28T23:17:33.552Z,99818.13
2023-06-28T23:20:08.591Z,99813.53
2023-06-28T23:22:35.871Z,99819.47
2023-06-28T23:25:03.596Z,99807.25
2023-06-28T23:27:30.828Z,99808.31
2023-06-28T23:29:58.461Z,99814.03
2023-06-28T23:32:30.082Z,99816.44
2023-06-28T23:34:57.470Z,99813.44
2023-06-28T23:37:24.631Z,99810.41
2023-06-28T23:39:51.985Z,99807.16
2023-06-28T23:42:19.284Z,99808.25
2023-06-28T23:44:51.370Z,99817.44
2023-06-28T23:47:19.543Z,99814.13
2023-06-28T23:49:51.435Z,99815.50
2023-06-28T23:52:20.842Z,99810.84
2023-06-28T23:54:50.009Z,99819.50
2023-06-28T23:57:17.049Z,99817.56
2023-06-28T23:59:44.153Z,99814.84
